createdAt,value
2023-05-21T00:00:21.619Z,18.77
2023-05-21T00:02:48.201Z,16.63
2023-05-21T00:05:16.912Z,16.67
2023-05-21T00:07:43.992Z,17.00
2023-05-21T00:10:10.862Z,15.90
2023-05-21T00:12:37.340Z,14.87
2023-05-21T00:15:04.464Z,16.00
2023-05-21T00:17:31.040Z,20.00
2023-05-21T00:19:57.532Z,15.93
2023-05-21T00:22:24.120Z,14.67
2023-05-21T00:24:50.728Z,16.83
2023-05-21T00:27:17.329Z,17.03
2023-05-21T00:29:44.431Z,17.60
2023-05-21T00:32:11.527Z,15.10
2023-05-21T00:34:38.400Z,14.97
2023-05-21T00:37:05.193Z,14.87
2023-05-21T00:39:31.728Z,18.60
2023-05-21T00:41:58.351Z,15.90
2023-05-21T00:44:25.512Z,16.30
2023-05-21T00:46:55.527Z,15.57
2023-05-21T00:49:22.418Z,21.20
2023-05-21T00:51:49.625Z,16.57
2023-05-21T00:54:16.170Z,19.17
2023-05-21T00:56:42.767Z,17.43
2023-05-21T00:59:09.456Z,17.57
2023-05-21T01:01:37.048Z,17.63
2023-05-21T01:04:04.109Z,17.90
2023-05-21T01:06:34.567Z,15.63
2023-05-21T01:09:05.232Z,18.03
2023-05-21T01:11:40.048Z,15.63
2023-05-21T01:14:09.967Z,17.30
2023-05-21T01:16:42.260Z,19.43
2023-05-21T01:19:12.175Z,18.93
2023-05-21T01:21:46.379Z,22.33
2023-05-21T01:24:14.961Z,20.60
2023-05-21T01:26:42.813Z,19.90
2023-05-21T01:29:13.090Z,21.10
2023-05-21T01:32:15.786Z,17.60
2023-05-21T01:35:01.267Z,17.67
2023-05-21T01:37:51.675Z,17.10
2023-05-21T01:40:25.830Z,20.80
2023-05-21T01:42:52.610Z,15.87
2023-05-21T01:45:20.998Z,19.37
2023-05-21T01:47:50.369Z,17.30
2023-05-21T01:50:18.964Z,19.70
2023-05-21T01:52:53.713Z,16.80
2023-05-21T01:55:24.827Z,17.97
2023-05-21T01:57:53.537Z,18.63
2023-05-21T02:00:22.044Z,18.03
2023-05-21T02:02:49.303Z,16.60
2023-05-21T02:05:16.407Z,19.30
2023-05-21T02:07:43.943Z,18.30
2023-05-21T02:10:11.144Z,16.93
2023-05-21T02:12:38.047Z,20.33
2023-05-21T02:15:06.064Z,16.20
2023-05-21T02:17:34.077Z,17.07
2023-05-21T02:20:11.067Z,20.33
2023-05-21T02:22:42.068Z,17.27
2023-05-21T02:25:09.555Z,18.13
2023-05-21T02:27:37.554Z,20.30
2023-05-21T02:30:05.695Z,16.07
2023-05-21T02:32:32.542Z,17.77
2023-05-21T02:34:59.737Z,18.50
2023-05-21T02:37:29.608Z,17.53
2023-05-21T02:39:56.600Z,17.40
2023-05-21T02:42:23.611Z,18.50
2023-05-21T02:44:51.050Z,17.37
2023-05-21T02:47:18.858Z,15.43
2023-05-21T02:49:45.694Z,16.60
2023-05-21T02:52:12.762Z,15.07
2023-05-21T02:54:39.493Z,16.30
2023-05-21T02:57:06.089Z,17.23
2023-05-21T02:59:32.605Z,17.70
2023-05-21T03:01:59.141Z,17.40
2023-05-21T03:04:28.239Z,16.83
2023-05-21T03:06:55.359Z,18.00
2023-05-21T03:09:22.737Z,19.13
2023-05-21T03:11:49.950Z,17.73
2023-05-21T03:14:16.648Z,15.00
2023-05-21T03:16:43.810Z,15.53
2023-05-21T03:19:11.481Z,15.37
2023-05-21T03:21:38.134Z,16.90
2023-05-21T03:24:05.794Z,17.40
2023-05-21T03:26:32.304Z,20.33
2023-05-21T03:28:58.857Z,16.10
2023-05-21T03:31:26.457Z,17.10
2023-05-21T03:33:53.704Z,16.70
2023-05-21T03:36:20.839Z,17.83
2023-05-21T03:38:47.390Z,16.23
2023-05-21T03:41:13.918Z,14.20
2023-05-21T03:43:40.580Z,15.97
2023-05-21T03:46:07.201Z,14.77
2023-05-21T03:48:33.709Z,15.87
2023-05-21T03:51:00.197Z,21.37
2023-05-21T03:53:27.028Z,19.70
2023-05-21T03:55:55.419Z,16.70
2023-05-21T03:58:22.650Z,18.40
2023-05-21T04:00:49.194Z,17.60
2023-05-21T04:03:15.961Z,18.07
2023-05-21T04:05:42.897Z,18.40
2023-05-21T04:08:09.655Z,16.60
2023-05-21T04:10:36.175Z,17.60
2023-05-21T04:13:02.956Z,19.30
2023-05-21T04:15:29.534Z,15.40
2023-05-21T04:17:57.031Z,24.33
2023-05-21T04:20:23.636Z,17.17
2023-05-21T04:22:50.231Z,15.77
2023-05-21T04:25:16.746Z,17.50
2023-05-21T04:27:43.643Z,17.50
2023-05-21T04:30:11.197Z,20.77
2023-05-21T04:32:38.590Z,15.83
2023-05-21T04:35:05.746Z,14.30
2023-05-21T04:37:35.053Z,17.00
2023-05-21T04:40:02.618Z,14.30
2023-05-21T04:42:30.020Z,17.10
2023-05-21T04:44:59.353Z,17.30
2023-05-21T04:47:25.918Z,13.90
2023-05-21T04:49:53.404Z,14.43
2023-05-21T04:52:19.952Z,16.27
2023-05-21T04:54:47.941Z,15.23
2023-05-21T04:57:14.454Z,18.00
2023-05-21T04:59:41.464Z,15.60
2023-05-21T05:02:07.996Z,16.87
2023-05-21T05:04:34.505Z,18.37
2023-05-21T05:07:01.189Z,22.80
2023-05-21T05:09:28.097Z,17.57
2023-05-21T05:11:54.584Z,17.47
2023-05-21T05:14:21.157Z,16.87
2023-05-21T05:16:50.273Z,18.20
2023-05-21T05:19:16.958Z,14.93
2023-05-21T05:21:43.504Z,20.10
2023-05-21T05:24:09.984Z,19.83
2023-05-21T05:26:36.527Z,15.43
2023-05-21T05:29:03.059Z,16.10
2023-05-21T05:31:29.580Z,22.40
2023-05-21T05:33:56.169Z,18.30
2023-05-21T05:36:22.657Z,18.07
2023-05-21T05:38:49.173Z,20.70
2023-05-21T05:41:15.760Z,16.27
2023-05-21T05:43:42.253Z,17.33
2023-05-21T05:46:09.097Z,17.47
2023-05-21T05:48:35.673Z,16.97
2023-05-21T05:51:02.163Z,22.60
2023-05-21T05:53:28.668Z,18.60
2023-05-21T05:55:55.120Z,17.40
2023-05-21T05:58:21.623Z,17.83
2023-05-21T06:00:48.122Z,16.00
2023-05-21T06:03:14.778Z,15.17
2023-05-21T06:05:41.401Z,16.47
2023-05-21T06:08:07.916Z,15.63
2023-05-21T06:10:34.379Z,15.07
2023-05-21T06:13:00.949Z,18.70
2023-05-21T06:15:27.505Z,14.53
2023-05-21T06:17:54.143Z,18.67
2023-05-21T06:20:20.710Z,19.33
2023-05-21T06:22:47.276Z,16.40
2023-05-21T06:25:14.593Z,16.43
2023-05-21T06:27:41.110Z,15.80
2023-05-21T06:30:08.556Z,17.57
2023-05-21T06:32:35.143Z,15.40
2023-05-21T06:35:01.839Z,16.80
2023-05-21T06:37:28.323Z,16.50
2023-05-21T06:39:54.810Z,19.47
2023-05-21T06:42:21.390Z,16.47
2023-05-21T06:44:47.897Z,19.73
2023-05-21T06:47:14.445Z,18.03
2023-05-21T06:49:43.911Z,19.90
2023-05-21T06:52:11.191Z,18.50
2023-05-21T06:54:40.308Z,22.53
2023-05-21T06:57:08.507Z,20.40
2023-05-21T06:59:35.006Z,21.03
2023-05-21T07:02:04.337Z,26.93
2023-05-21T07:04:31.463Z,18.50
2023-05-21T07:06:58.143Z,21.40
2023-05-21T07:09:24.625Z,17.67
2023-05-21T07:11:52.969Z,20.13
2023-05-21T07:14:19.585Z,19.60
2023-05-21T07:16:46.250Z,22.97
2023-05-21T07:19:12.900Z,24.23
2023-05-21T07:21:39.420Z,18.53
2023-05-21T07:24:06.311Z,16.93
2023-05-21T07:26:32.828Z,16.83
2023-05-21T07:28:59.303Z,18.73
2023-05-21T07:31:26.067Z,19.63
2023-05-21T07:33:52.625Z,19.80
2023-05-21T07:36:19.137Z,20.87
2023-05-21T07:38:45.717Z,18.20
2023-05-21T07:41:12.262Z,18.27
2023-05-21T07:43:38.769Z,20.20
2023-05-21T07:46:05.347Z,18.77
2023-05-21T07:48:33.556Z,19.37
2023-05-21T07:51:01.400Z,18.10
2023-05-21T07:53:28.811Z,18.33
2023-05-21T07:55:55.483Z,20.23
2023-05-21T07:58:23.051Z,25.13
2023-05-21T08:00:51.042Z,18.43
2023-05-21T08:03:18.327Z,19.10
2023-05-21T08:05:49.028Z,18.27
2023-05-21T08:08:17.557Z,19.70
2023-05-21T08:10:44.661Z,19.13
2023-05-21T08:13:16.292Z,21.70
2023-05-21T08:15:43.086Z,19.50
2023-05-21T08:18:10.126Z,17.27
2023-05-21T08:20:36.968Z,19.30
2023-05-21T08:23:03.875Z,20.40
2023-05-21T08:25:30.487Z,23.87
2023-05-21T08:27:56.988Z,22.27
2023-05-21T08:30:23.495Z,19.90
2023-05-21T08:32:50.099Z,19.70
2023-05-21T08:35:16.667Z,20.77
2023-05-21T08:37:43.233Z,22.63
2023-05-21T08:40:12.346Z,23.90
2023-05-21T08:42:49.033Z,20.30
2023-05-21T08:45:22.097Z,19.27
2023-05-21T08:47:55.989Z,20.00
2023-05-21T08:50:26.172Z,28.17
2023-05-21T08:52:53.111Z,21.43
2023-05-21T08:55:19.904Z,21.40
2023-05-21T08:57:46.386Z,20.90
2023-05-21T09:00:14.251Z,18.70
2023-05-21T09:02:41.149Z,20.47
2023-05-21T09:05:09.641Z,18.77
2023-05-21T09:07:47.138Z,22.80
2023-05-21T09:10:14.452Z,39.30
2023-05-21T09:12:41.238Z,20.90
2023-05-21T09:15:11.113Z,19.97
2023-05-21T09:17:37.711Z,19.80
2023-05-21T09:20:17.571Z,19.57
2023-05-21T09:22:46.163Z,23.33
2023-05-21T09:25:15.843Z,21.07
2023-05-21T09:27:42.835Z,18.70
2023-05-21T09:30:12.238Z,21.00
2023-05-21T09:32:39.997Z,23.00
2023-05-21T09:35:16.222Z,21.10
2023-05-21T09:37:45.079Z,20.57
2023-05-21T09:40:16.603Z,24.20
2023-05-21T09:42:48.514Z,27.43
2023-05-21T09:45:19.860Z,23.17
2023-05-21T09:47:48.016Z,21.90
2023-05-21T09:50:19.764Z,23.73
2023-05-21T09:52:46.945Z,20.30
2023-05-21T09:55:14.987Z,22.07
2023-05-21T09:57:48.070Z,25.70
2023-05-21T10:00:24.161Z,20.60
2023-05-21T10:02:54.720Z,20.80
2023-05-21T10:05:23.882Z,19.10
2023-05-21T10:07:52.130Z,19.80
2023-05-21T10:10:22.804Z,19.23
2023-05-21T10:12:58.121Z,21.87
2023-05-21T10:15:26.116Z,23.47
2023-05-21T10:17:52.936Z,21.07
2023-05-21T10:20:20.899Z,22.77
2023-05-21T10:22:48.046Z,20.53
2023-05-21T10:25:15.662Z,22.10
2023-05-21T10:27:42.556Z,21.80
2023-05-21T10:30:10.048Z,20.07
2023-05-21T10:32:36.734Z,22.07
2023-05-21T10:35:03.617Z,22.23
2023-05-21T10:37:30.169Z,22.13
2023-05-21T10:39:57.227Z,21.23
2023-05-21T10:42:23.706Z,20.53
2023-05-21T10:45:15.475Z,29.30
2023-05-21T10:48:19.216Z,22.07
2023-05-21T10:50:56.457Z,18.80
2023-05-21T10:54:01.356Z,21.80
2023-05-21T10:56:34.369Z,22.87
2023-05-21T10:59:10.155Z,20.70
2023-05-21T11:01:39.400Z,26.30
2023-05-21T11:04:06.374Z,24.17
2023-05-21T11:06:33.041Z,23.97
2023-05-21T11:09:17.801Z,21.50
2023-05-21T11:11:52.312Z,22.63
2023-05-21T11:14:32.809Z,21.33
2023-05-21T11:17:00.355Z,23.43
2023-05-21T11:19:44.099Z,24.73
2023-05-21T11:22:10.697Z,21.83
2023-05-21T11:24:39.680Z,22.50
2023-05-21T11:27:07.108Z,26.17
2023-05-21T11:29:44.055Z,25.17
2023-05-21T11:32:12.861Z,23.77
2023-05-21T11:34:41.808Z,22.83
2023-05-21T11:37:17.426Z,21.77
2023-05-21T11:39:48.133Z,25.70
2023-05-21T11:42:30.423Z,19.50
2023-05-21T11:44:59.086Z,26.23
2023-05-21T11:47:27.113Z,21.63
2023-05-21T11:49:54.563Z,23.73
2023-05-21T11:52:21.514Z,22.37
2023-05-21T11:54:58.128Z,26.40
2023-05-21T11:57:31.100Z,22.87
2023-05-21T11:59:59.170Z,49.07
2023-05-21T12:02:28.574Z,39.67
2023-05-21T12:04:59.911Z,22.40
2023-05-21T12:07:31.371Z,24.00
2023-05-21T12:09:58.421Z,24.13
2023-05-21T12:12:29.359Z,26.77
2023-05-21T12:15:02.599Z,27.23
2023-05-21T12:17:31.515Z,26.83
2023-05-21T12:19:59.320Z,25.70
2023-05-21T12:22:28.015Z,23.57
2023-05-21T12:24:54.694Z,27.93
2023-05-21T12:27:22.199Z,25.57
2023-05-21T12:29:53.080Z,24.57
2023-05-21T12:32:21.034Z,30.30
2023-05-21T12:34:52.901Z,22.80
2023-05-21T12:37:27.905Z,20.60
2023-05-21T12:39:56.093Z,23.27
2023-05-21T12:42:27.493Z,21.90
2023-05-21T12:44:54.447Z,20.60
2023-05-21T12:47:24.535Z,20.83
2023-05-21T12:49:55.478Z,18.30
2023-05-21T12:52:22.414Z,23.60
2023-05-21T12:54:54.273Z,23.97
2023-05-21T12:57:25.576Z,22.93
2023-05-21T12:59:57.431Z,22.60
2023-05-21T13:02:25.718Z,25.83
2023-05-21T13:05:00.473Z,23.53
2023-05-21T13:07:28.586Z,21.57
2023-05-21T13:09:55.956Z,23.27
2023-05-21T13:12:26.055Z,25.90
2023-05-21T13:14:54.017Z,21.33
2023-05-21T13:17:21.291Z,25.00
2023-05-21T13:20:09.862Z,21.57
2023-05-21T13:22:39.164Z,23.07
2023-05-21T13:25:07.145Z,22.40
2023-05-21T13:27:33.675Z,22.90
2023-05-21T13:30:01.010Z,24.37
2023-05-21T13:32:27.900Z,23.33
2023-05-21T13:34:54.438Z,25.20
2023-05-21T13:37:21.216Z,18.97
2023-05-21T13:39:47.991Z,23.57
2023-05-21T13:42:14.611Z,20.63
2023-05-21T13:44:41.229Z,23.87
2023-05-21T13:47:10.226Z,23.50
2023-05-21T13:49:37.277Z,24.00
2023-05-21T13:52:04.504Z,29.33
2023-05-21T13:54:31.196Z,22.30
2023-05-21T13:56:57.961Z,22.13
2023-05-21T13:59:24.514Z,29.60
2023-05-21T14:01:52.363Z,38.40
2023-05-21T15:43:42.768Z,34.50
2023-05-21T15:46:09.381Z,35.80
2023-05-21T15:48:36.028Z,112.07
2023-05-21T15:51:02.522Z,27.13
2023-05-21T15:53:29.126Z,24.87
2023-05-21T15:55:56.695Z,29.90
2023-05-21T15:58:23.252Z,28.30
2023-05-21T16:00:49.986Z,55.67
2023-05-21T16:03:16.756Z,41.20
2023-05-21T16:05:43.317Z,28.57
2023-05-21T16:08:11.428Z,30.90
2023-05-21T16:10:39.991Z,42.77
2023-05-21T16:13:06.692Z,24.60
2023-05-21T16:15:33.372Z,24.50
2023-05-21T16:18:01.011Z,21.17
2023-05-21T16:20:27.574Z,22.47
2023-05-21T16:22:54.050Z,25.17
2023-05-21T16:25:23.366Z,22.80
2023-05-21T16:27:49.956Z,25.40
2023-05-21T16:30:16.485Z,25.70
2023-05-21T16:32:43.124Z,24.70
2023-05-21T16:35:09.676Z,26.80
2023-05-21T16:37:36.169Z,26.63
2023-05-21T16:40:05.737Z,24.40
2023-05-21T16:42:32.250Z,20.20
2023-05-21T16:44:58.778Z,20.70
2023-05-21T16:47:25.297Z,24.07
2023-05-21T16:49:51.787Z,21.20
2023-05-21T16:52:18.514Z,23.47
2023-05-21T16:54:48.812Z,25.20
2023-05-21T16:57:15.669Z,19.97
2023-05-21T16:59:43.485Z,20.50
2023-05-21T17:02:12.811Z,19.43
2023-05-21T17:04:39.307Z,20.70
2023-05-21T17:07:06.070Z,19.90
2023-05-21T17:09:32.607Z,24.50
2023-05-21T17:11:59.066Z,21.30
2023-05-21T17:14:34.314Z,18.37
2023-05-21T17:17:01.649Z,21.83
2023-05-21T17:19:28.381Z,24.20
2023-05-21T17:21:55.621Z,18.40
2023-05-21T17:24:22.186Z,21.20
2023-05-21T17:26:48.727Z,22.27
2023-05-21T17:29:15.350Z,18.93
2023-05-21T17:31:42.224Z,19.07
2023-05-21T17:34:08.744Z,22.00
2023-05-21T17:36:36.824Z,20.00
2023-05-21T17:39:03.340Z,20.77
2023-05-21T17:41:29.949Z,20.77
2023-05-21T17:43:57.086Z,20.77
2023-05-21T17:46:23.684Z,20.57
2023-05-21T17:48:50.344Z,22.23
2023-05-21T17:51:16.959Z,29.23
2023-05-21T17:53:43.580Z,39.20
2023-05-21T17:56:11.316Z,21.77
2023-05-21T17:58:37.891Z,20.90
2023-05-21T18:01:04.552Z,25.93
2023-05-21T18:03:31.103Z,19.77
2023-05-21T18:05:57.561Z,24.40
2023-05-21T18:08:24.168Z,21.60
2023-05-21T18:10:50.783Z,27.67
2023-05-21T18:13:17.371Z,20.00
2023-05-21T18:15:43.855Z,20.93
2023-05-21T18:18:19.827Z,22.97
2023-05-21T18:20:48.208Z,22.80
2023-05-21T18:23:14.888Z,21.50
2023-05-21T18:25:41.430Z,19.23
2023-05-21T18:28:09.111Z,22.70
2023-05-21T18:30:35.974Z,22.87
2023-05-21T18:33:02.861Z,25.67
2023-05-21T18:35:31.023Z,21.43
2023-05-21T18:37:57.800Z,19.10
2023-05-21T18:40:27.917Z,22.67
2023-05-21T18:42:55.702Z,21.27
2023-05-21T18:45:22.258Z,22.17
2023-05-21T18:47:48.876Z,19.57
2023-05-21T18:50:15.717Z,21.63
2023-05-21T18:52:42.299Z,25.13
2023-05-21T18:55:09.391Z,26.30
2023-05-21T18:57:35.963Z,24.00
2023-05-21T19:00:02.505Z,23.47
2023-05-21T19:02:29.811Z,21.70
2023-05-21T19:04:56.469Z,21.83
2023-05-21T19:07:22.984Z,22.33
2023-05-21T19:09:49.505Z,23.23
2023-05-21T19:12:16.026Z,23.70
2023-05-21T19:14:45.447Z,24.23
2023-05-21T19:17:13.533Z,26.63
2023-05-21T19:19:40.344Z,27.80
2023-05-21T19:22:07.405Z,26.10
2023-05-21T19:24:34.002Z,24.90
2023-05-21T19:27:00.769Z,27.20
2023-05-21T19:29:28.790Z,30.40
2023-05-21T19:31:56.105Z,27.53
2023-05-21T19:34:23.514Z,25.33
2023-05-21T19:36:53.331Z,29.87
2023-05-21T19:39:20.369Z,27.37
2023-05-21T19:41:46.887Z,30.30
2023-05-21T19:44:13.358Z,32.33
2023-05-21T19:46:39.951Z,29.50
2023-05-21T19:49:06.492Z,27.23
2023-05-21T19:51:32.979Z,32.70
2023-05-21T19:53:59.481Z,30.53
2023-05-21T19:56:26.734Z,30.57
2023-05-21T19:58:53.277Z,27.10
2023-05-21T20:01:19.876Z,31.07
2023-05-21T20:03:46.578Z,31.10
2023-05-21T20:06:15.406Z,27.30
2023-05-21T20:08:44.983Z,31.20
2023-05-21T20:11:11.630Z,28.73
2023-05-21T20:13:38.177Z,29.60
2023-05-21T20:16:05.002Z,33.13
2023-05-21T20:18:31.499Z,32.07
2023-05-21T20:20:57.992Z,29.90
2023-05-21T20:23:24.627Z,30.13
2023-05-21T20:25:51.172Z,30.40
2023-05-21T20:28:19.361Z,31.40
2023-05-21T20:30:54.773Z,31.60
2023-05-21T20:33:21.319Z,29.53
2023-05-21T20:35:47.894Z,29.13
2023-05-21T20:38:15.874Z,31.60
2023-05-21T20:40:43.443Z,28.73
2023-05-21T20:43:18.613Z,31.40
2023-05-21T20:45:49.840Z,31.60
2023-05-21T20:48:16.965Z,33.33
2023-05-21T20:50:48.971Z,48.83
2023-05-21T20:53:15.854Z,73.30
2023-05-21T20:55:44.449Z,33.20
2023-05-21T20:58:11.621Z,37.90
2023-05-21T21:00:44.872Z,34.00
2023-05-21T21:03:11.713Z,32.97
2023-05-21T21:05:38.914Z,30.87
2023-05-21T21:08:05.910Z,32.70
2023-05-21T21:10:32.990Z,35.03
2023-05-21T21:12:59.422Z,32.63
2023-05-21T21:15:26.016Z,37.03
2023-05-21T21:17:52.572Z,32.30
2023-05-21T21:20:19.368Z,35.03
2023-05-21T21:22:46.185Z,33.30
2023-05-21T21:25:15.984Z,33.07
2023-05-21T21:27:43.320Z,36.70
2023-05-21T21:30:10.388Z,33.00
2023-05-21T21:32:37.081Z,38.20
2023-05-21T21:35:03.865Z,38.07
2023-05-21T21:37:30.324Z,34.73
2023-05-21T21:39:56.851Z,40.07
2023-05-21T21:42:23.514Z,32.20
2023-05-21T21:44:49.998Z,35.43
2023-05-21T21:47:16.504Z,36.23
2023-05-21T21:49:43.073Z,31.00
2023-05-21T21:52:10.793Z,32.93
2023-05-21T21:54:37.346Z,25.87
2023-05-21T21:57:03.919Z,26.63
2023-05-21T21:59:30.512Z,25.97
2023-05-21T22:01:57.093Z,25.77
2023-05-21T22:04:23.620Z,33.47
2023-05-21T22:06:50.263Z,31.97
2023-05-21T22:09:17.537Z,30.23
2023-05-21T22:11:44.167Z,33.70
2023-05-21T22:14:11.520Z,26.80
2023-05-21T22:16:38.352Z,32.97
2023-05-21T22:19:05.005Z,33.13
2023-05-21T22:21:32.979Z,37.77
2023-05-21T22:24:00.058Z,31.73
2023-05-21T22:26:26.652Z,31.10
2023-05-21T22:28:53.329Z,30.40
2023-05-21T22:31:20.008Z,28.33
2023-05-21T22:33:46.798Z,33.67
2023-05-21T22:36:13.252Z,29.67
2023-05-21T22:38:39.709Z,30.57
2023-05-21T22:41:06.298Z,32.50
2023-05-21T22:43:34.769Z,27.50
2023-05-21T22:46:01.885Z,28.87
2023-05-21T22:48:30.653Z,30.20
2023-05-21T22:50:58.334Z,30.27
2023-05-21T22:53:25.650Z,32.80
2023-05-21T22:55:52.157Z,30.43
2023-05-21T22:58:19.178Z,33.07
2023-05-21T23:00:46.856Z,32.40
2023-05-21T23:03:13.472Z,34.30
2023-05-21T23:05:40.206Z,35.70
2023-05-21T23:08:06.717Z,33.40
2023-05-21T23:10:33.936Z,37.60
2023-05-21T23:13:00.460Z,32.47
2023-05-21T23:15:29.495Z,35.30
2023-05-21T23:17:56.980Z,35.70
2023-05-21T23:20:24.593Z,36.67
2023-05-21T23:22:51.190Z,34.90
2023-05-21T23:25:17.827Z,34.10
2023-05-21T23:27:44.911Z,31.87
2023-05-21T23:30:12.073Z,30.83
2023-05-21T23:32:38.902Z,33.90
2023-05-21T23:35:05.945Z,31.50
2023-05-21T23:37:32.474Z,30.73
2023-05-21T23:39:59.002Z,33.70
2023-05-21T23:42:25.530Z,33.60
2023-05-21T23:44:51.988Z,30.83
2023-05-21T23:47:18.461Z,31.77
2023-05-21T23:49:44.913Z,31.43
2023-05-21T23:52:13.400Z,28.60
2023-05-21T23:54:39.919Z,32.30
2023-05-21T23:57:06.497Z,30.43
2023-05-21T23:59:33.052Z,30.67
